Romulus, Michigan
Current Conditions -  °F | °C
As of 1:53 AM on Wednesday 22 Oct 2014 (Local Time) from KDTW Reporting Station
Overcast Overcast  
Wind Chill: 41°   Ceiling: 2000
Heat Index: 45°   Visibility: 10mi
Dew Point: 38°   Wind: 8mph
Humidity: 76%   Direction: 340°NNW
Pressure: 30.21"   Gusts: NA
Location:  42.22°N, 83.38°W
Report Text: KDTW 220553Z 34007KT 10SM OVC020 07/03 A3021 RMK AO2 SLP234 T00720033 10072 20072 52001
Loading
Personal Weather Stations






























Interactive Weather Map
Tropical Storm Tracking
New forecast layout! Learn more

10-Day Weather Forecast

Advertisements
Track Severe Weather on mobile